Waar ligt Igreja de Santa Clara in Portugal?

Igreja de Santa Clara is gevestigd in de regio Santarem in Portugal!

Zoek de plaatsnaam:

Igreja Nova, Igre Khariba, Igreja de Caires, Igreja de Montalegre, Igreque

Hier ziet u waar Igreja de Santa Clara op de kaart ligt.
Voor een indruk van hoe het er nu buiten uitziet staan onderaan wat plaatjes van de omgeving vanuit online web camera's.
U ziet ook de afstanden tot de belangrijkste plaatsen in de regio en tot plaatsen in de rest van Portugal.

Alle plaatsen in de wereld die heten.

new

Waar ligt Igreja de Santa Clara op de kaart?


Webcams vlakbij Igreja de Santa Clara

Vasco Carão > South: Garrocheira, Benavente - Airport.


Vasco Carão > South: Garrocheira, Benavente - Airport - Overdag
Recent
Vasco Carão > South: Garrocheira, Benavente - Airport - Recent

Benavente > North-East: AIrport, METAR: BENAV 180005Z 36004KT 17/14 Q1015.


Benavente > North-East: AIrport, METAR: BENAV 180005Z 36004KT 17/14 Q1015 - Overdag
Recent
Benavente > North-East: AIrport, METAR: BENAV 180005Z 36004KT 17/14 Q1015 - Recent

Caldas da Rainha.


Caldas da Rainha - Overdag
Recent
Caldas da Rainha - Recent

Webcams provided by webcams.travel

Afstanden

Waar ligt Igreja de Santa Clara ten opzichte van andere plaatsen?

Top 10 plaatsen in Santarem en afstand vanaf Igreja de Santa Clara.

Plaats#Inwonerskmmijl
Santarém12938500
Entroncamento2198873119
Tomar3191684729
Torres Novas4145262918
Samora Correia5141543723
Abrantes6136464830
Ourém7127294528
Rio Maior8120642415
Fátima9117984226
Almeirim101155664

Top 10 plaatsen in Portugal en afstand vanaf Igreja de Santa Clara.

Plaats # Inwonerskmmijl
Lisbon15177987144
Porto2249630212132
Amadora31788567245
Braga4121393257160
Setúbal51171098050
Coimbra610658010968
Queluz71033987245
Funchal8980411041647
Vila Nova de Gaia970810211131
Loures10662306339

Reisadvies Portugal

Advies en informatie van het ministerie van Buitenlandse Zaken over (zaken)reizen en veiligheidsrisico’s in Portugal via rijksoverheid.nl.

Met een reisadvies kunnen Nederlandse reizigers zich beter voorbereiden op veiligheidsrisico’s tijdens een buitenlands vakantie of verblijf. Wees geinformerd over de risico's op ontvoeringen, gewapende overvallen, bomaanslagen, natuurrampen of oorlogsgeweld. Buitenlandse Zaken vermeldt in een reisadvies bijvoorbeeld welke gebieden in Portugalo onveilig zijn, roept reizigers op tot waakzaamheid of ontraadt reizen.

Reisadvies Portugal



Reisinformatie Portugal

Informatie over residocumenten, aanvragen van een visa en de kosten hiervan. Contactinformatie van de ambassade in Portugal. Informatie over reisverzekeringen.

Reisinformatie Portugal